Saint Mary, Missouri
Current Conditions -  °F | °C
As of 6:15 AM on Monday 22 Dec 2014 (Local Time) from KSAR Reporting Station
Moderate Rain Moderate Rain  
Wind Chill: 33°   Ceiling: 2200
Heat Index: 39°   Visibility: 10mi
Dew Point: 35°   Wind: 9mph
Humidity: 84%   Direction: 130°SE
Pressure: 29.83"   Gusts: NA
Location:  37.88°N, 89.95°W
Report Text: KSAR 221215Z AUTO 13008KT 10SM RA SCT015 BKN022 OVC030 04/02 A2983 RMK AO2 T00410016
Loading
Personal Weather Stations






























Interactive Weather Map New forecast layout! Learn more

10-Day Weather Forecast

Advertisements
Track Severe Weather on mobile